Time;durP1;ratioP1;P1;durP2;ratioP2;P2;SDS_P1;SDS_P2;PMS_P1;PMS_P2;Temp;Humidity;BMP_temperature;BMP_pressure;BME280_temperature;BME280_humidity;BME280_pressure;Samples;Min_cycle;Max_cycle;Signal;HPM_P1;HPM_P2
2022/06/12 00:02:07;;;;;;;8.60;2.70;;;16.30;99.90;;;;;;4822990;29;20058;-55
2022/06/12 00:04:33;;;;;;;9.00;2.85;;;16.30;99.90;;;;;;4822874;29;20058;-56
2022/06/12 00:06:58;;;;;;;10.15;3.03;;;16.30;99.90;;;;;;4822690;29;20050;-57
2022/06/12 00:09:24;;;;;;;12.80;3.20;;;16.30;99.90;;;;;;4823089;29;20054;-55
2022/06/12 00:11:50;;;;;;;11.07;3.15;;;16.20;99.90;;;;;;4807000;29;20275;-57
2022/06/12 00:14:16;;;;;;;8.20;2.78;;;16.20;99.90;;;;;;4806634;29;20145;-57
2022/06/12 00:16:44;;;;;;;9.27;2.95;;;16.20;99.90;;;;;;4822817;29;20487;-58
2022/06/12 00:19:10;;;;;;;10.75;2.30;;;16.20;99.90;;;;;;4822621;29;20093;-58
2022/06/12 00:21:36;;;;;;;8.40;2.70;;;16.20;99.90;;;;;;4806666;29;20476;-56
2022/06/12 00:24:10;;;;;;;9.63;2.50;;;16.10;99.90;;;;;;4822890;29;20086;-59
2022/06/12 00:26:42;;;;;;;10.65;2.88;;;16.10;99.90;;;;;;4823051;29;20069;-58
2022/06/12 00:29:17;;;;;;;8.23;2.67;;;16.10;99.90;;;;;;4822790;29;20050;-55
2022/06/12 00:31:47;;;;;;;9.93;2.42;;;16.10;99.90;;;;;;4806701;29;20085;-59
2022/06/12 00:34:15;;;;;;;8.85;2.88;;;16.00;99.90;;;;;;4822523;29;20046;-57
2022/06/12 00:36:41;;;;;;;9.70;2.70;;;16.00;99.90;;;;;;4806534;29;20054;-58
2022/06/12 00:39:08;;;;;;;7.95;2.40;;;16.00;99.90;;;;;;4822434;29;20053;-58
2022/06/12 00:41:36;;;;;;;7.97;2.38;;;15.90;99.90;;;;;;4822684;29;20053;-56
2022/06/12 00:44:03;;;;;;;7.95;2.42;;;15.90;99.90;;;;;;4822459;29;20057;-58
2022/06/12 00:46:43;;;;;;;10.98;2.85;;;15.90;99.90;;;;;;4822826;29;20066;-56
2022/06/12 00:49:16;;;;;;;8.20;2.20;;;15.80;99.90;;;;;;4822218;29;20118;-56
2022/06/12 00:51:47;;;;;;;11.57;2.67;;;15.70;99.90;;;;;;4806566;29;20141;-58
2022/06/12 00:54:13;;;;;;;7.53;2.15;;;15.80;99.90;;;;;;4822265;29;20054;-59
2022/06/12 00:56:47;;;;;;;8.45;2.63;;;15.70;99.90;;;;;;4790904;29;20050;-56
2022/06/12 00:59:21;;;;;;;9.57;2.63;;;15.70;99.90;;;;;;4821822;29;20107;-58
2022/06/12 01:01:52;;;;;;;10.43;2.63;;;15.60;99.90;;;;;;4822361;29;20508;-58
2022/06/12 01:07:08;;;;;;;7.75;2.22;;;15.60;99.90;;;;;;4805710;29;20054;-61
2022/06/12 01:09:38;;;;;;;10.45;2.53;;;15.50;99.90;;;;;;4826239;29;20082;-59
2022/06/12 01:12:08;;;;;;;8.38;2.75;;;15.50;99.90;;;;;;4809821;29;20050;-61
2022/06/12 01:14:41;;;;;;;11.60;2.92;;;15.50;99.90;;;;;;4809745;29;20119;-56
2022/06/12 01:17:10;;;;;;;8.57;2.83;;;15.50;99.90;;;;;;4794342;29;20485;-57
2022/06/12 01:19:42;;;;;;;8.88;2.60;;;15.40;99.90;;;;;;4809337;29;20149;-56
2022/06/12 01:22:23;;;;;;;9.90;2.70;;;15.40;99.90;;;;;;4809398;29;20073;-58
2022/06/12 01:25:26;;;;;;;9.40;2.35;;;15.40;99.90;;;;;;4809663;29;20065;-58
2022/06/12 01:28:33;;;;;;;8.95;2.65;;;15.40;99.90;;;;;;4825902;29;20496;-56
2022/06/12 01:31:06;;;;;;;8.88;2.00;;;15.40;99.90;;;;;;4825751;29;20042;-56
2022/06/12 01:33:44;;;;;;;8.98;2.78;;;15.30;99.90;;;;;;4825619;29;20129;-56
2022/06/12 01:36:13;;;;;;;7.10;2.20;;;15.40;99.90;;;;;;4809104;29;20061;-57
2022/06/12 01:38:55;;;;;;;10.05;2.75;;;15.30;99.90;;;;;;4809422;29;20140;-56
2022/06/12 01:41:58;;;;;;;8.80;2.28;;;15.30;99.90;;;;;;4825204;29;20047;-55
2022/06/12 01:44:44;;;;;;;10.20;2.58;;;15.30;99.90;;;;;;4824426;29;20104;-54
2022/06/12 01:47:34;;;;;;;7.30;2.17;;;15.30;99.90;;;;;;4824639;29;20046;-61
2022/06/12 01:50:13;;;;;;;9.30;2.70;;;15.30;99.90;;;;;;4825462;29;20043;-59
2022/06/12 01:53:05;;;;;;;9.90;2.58;;;15.30;99.90;;;;;;4825242;29;20098;-59
2022/06/12 01:55:52;;;;;;;14.13;2.38;;;15.20;99.90;;;;;;4816523;29;20058;-59
2022/06/12 01:58:33;;;;;;;9.73;2.72;;;15.20;99.90;;;;;;4824887;29;20150;-57
2022/06/12 02:01:14;;;;;;;12.07;2.85;;;15.20;99.90;;;;;;4825035;29;20373;-53
2022/06/12 02:03:52;;;;;;;7.80;2.55;;;15.20;99.90;;;;;;4794216;29;20118;-56
2022/06/12 02:06:25;;;;;;;9.68;2.50;;;15.20;99.90;;;;;;4824820;29;20508;-56
2022/06/12 02:09:00;;;;;;;12.88;3.03;;;15.20;99.90;;;;;;4824712;29;20481;-56
2022/06/12 02:14:46;;;;;;;6.97;2.60;;;15.10;99.90;;;;;;4824651;29;20058;-59
2022/06/12 02:17:20;;;;;;;6.90;2.58;;;15.10;99.90;;;;;;4824633;29;20089;-62
2022/06/12 02:19:47;;;;;;;10.48;2.88;;;15.10;99.90;;;;;;4824075;29;20122;-56
2022/06/12 02:22:26;;;;;;;12.18;2.85;;;15.10;99.90;;;;;;4824658;29;20058;-62
2022/06/12 02:25:16;;;;;;;9.30;2.83;;;15.00;99.90;;;;;;4824885;29;20069;-57
2022/06/12 02:27:49;;;;;;;10.95;2.70;;;15.00;99.90;;;;;;4824736;29;20061;-59
2022/06/12 02:30:23;;;;;;;13.32;2.78;;;15.00;99.90;;;;;;4808916;29;20052;-61
2022/06/12 02:32:51;;;;;;;8.63;2.47;;;14.90;99.90;;;;;;4824979;29;20077;-59
2022/06/12 02:35:52;;;;;;;11.43;3.38;;;14.90;99.90;;;;;;4824327;29;20107;-59
2022/06/12 02:38:21;;;;;;;13.90;3.47;;;14.90;99.90;;;;;;4810832;29;20520;-58
2022/06/12 02:41:01;;;;;;;9.25;2.85;;;14.80;99.90;;;;;;4824457;29;20465;-58
2022/06/12 02:43:30;;;;;;;8.38;2.67;;;14.80;99.90;;;;;;4808209;29;20076;-58
2022/06/12 02:46:04;;;;;;;11.13;3.30;;;14.80;99.90;;;;;;4808107;29;20054;-56
2022/06/12 02:48:31;;;;;;;9.65;3.10;;;14.80;99.90;;;;;;4808086;29;20086;-57
2022/06/12 02:51:06;;;;;;;10.85;2.67;;;14.70;99.90;;;;;;4807978;29;20054;-60
2022/06/12 02:53:50;;;;;;;9.00;3.03;;;14.70;99.90;;;;;;4823894;29;20057;-57
2022/06/12 02:56:31;;;;;;;10.52;2.75;;;14.60;99.90;;;;;;4823921;29;20046;-56
2022/06/12 02:59:23;;;;;;;8.68;2.95;;;14.60;99.90;;;;;;4824027;29;20092;-59
2022/06/12 03:02:00;;;;;;;12.27;2.70;;;14.60;99.90;;;;;;4801807;29;20063;-60
2022/06/12 03:04:51;;;;;;;10.15;2.90;;;14.50;99.90;;;;;;4807320;29;20054;-58
2022/06/12 03:07:17;;;;;;;11.88;3.20;;;14.50;99.90;;;;;;4807521;29;20461;-59
2022/06/12 03:09:43;;;;;;;11.82;3.25;;;14.40;99.90;;;;;;4823587;29;20141;-59
2022/06/12 03:12:09;;;;;;;10.48;3.00;;;14.40;99.90;;;;;;4807555;29;20484;-56
2022/06/12 03:14:35;;;;;;;9.18;2.90;;;14.40;99.90;;;;;;4823687;29;20058;-57
2022/06/12 03:17:00;;;;;;;9.63;2.83;;;14.40;99.90;;;;;;4807875;29;20046;-58
2022/06/12 03:19:42;;;;;;;8.07;2.88;;;14.40;99.90;;;;;;4807259;29;20080;-55
2022/06/12 03:22:22;;;;;;;13.93;2.95;;;14.30;99.90;;;;;;4823965;29;20077;-55
2022/06/12 03:25:01;;;;;;;11.90;3.17;;;14.30;99.90;;;;;;4807351;29;20058;-57
2022/06/12 03:27:47;;;;;;;12.82;2.88;;;14.30;99.90;;;;;;4823364;29;20050;-56
2022/06/12 03:30:19;;;;;;;10.82;3.08;;;14.20;99.90;;;;;;4806673;29;20058;-58
2022/06/12 03:33:15;;;;;;;10.85;3.10;;;14.30;99.90;;;;;;4823321;29;20155;-56
2022/06/12 03:35:48;;;;;;;13.88;3.70;;;14.20;99.90;;;;;;4807088;29;20066;-56
2022/06/12 03:38:47;;;;;;;9.90;2.97;;;14.20;99.90;;;;;;4807491;29;20056;-56
2022/06/12 03:41:23;;;;;;;9.73;3.10;;;14.20;99.90;;;;;;4823627;29;20053;-57
2022/06/12 03:43:59;;;;;;;13.50;3.47;;;14.10;99.90;;;;;;4823368;29;20068;-57
2022/06/12 03:46:24;;;;;;;6.82;2.80;;;14.10;99.90;;;;;;4823212;29;20050;-60
2022/06/12 03:49:07;;;;;;;13.60;2.88;;;14.10;99.90;;;;;;4823018;29;20057;-56
2022/06/12 03:52:14;;;;;;;10.35;2.90;;;14.10;99.90;;;;;;4823060;29;20042;-57
2022/06/12 03:54:46;;;;;;;10.30;2.63;;;14.10;99.90;;;;;;4786963;29;20160;-56
2022/06/12 04:00:17;;;;;;;12.43;3.00;;;14.10;99.90;;;;;;4823255;29;20051;-57
2022/06/12 04:02:56;;;;;;;11.80;3.05;;;14.10;99.90;;;;;;4822888;29;20058;-58
2022/06/12 04:05:43;;;;;;;9.80;3.00;;;14.10;99.90;;;;;;4823268;29;20042;-58
2022/06/12 04:08:14;;;;;;;9.52;2.83;;;14.10;99.90;;;;;;4823294;29;20062;-56
2022/06/12 04:10:40;;;;;;;8.80;2.45;;;14.10;99.90;;;;;;4822830;29;20047;-55
2022/06/12 04:13:10;;;;;;;9.80;2.92;;;14.10;99.90;;;;;;4806563;29;20053;-58
2022/06/12 04:15:43;;;;;;;10.43;2.70;;;14.10;99.90;;;;;;4822729;29;20046;-57
2022/06/12 04:18:10;;;;;;;10.73;2.53;;;14.10;99.90;;;;;;4823180;29;20062;-57
2022/06/12 04:21:03;;;;;;;11.48;3.08;;;14.20;99.90;;;;;;4822558;29;20069;-58
2022/06/12 04:23:44;;;;;;;9.48;2.90;;;14.20;99.90;;;;;;4789610;29;20081;-60
2022/06/12 04:26:33;;;;;;;9.57;3.13;;;14.30;99.90;;;;;;4822954;29;20080;-54
2022/06/12 04:29:25;;;;;;;10.20;2.95;;;14.30;99.90;;;;;;4812913;29;20062;-55
2022/06/12 04:31:55;;;;;;;12.48;3.55;;;14.40;99.90;;;;;;4822754;29;20050;-54
2022/06/12 04:34:28;;;;;;;10.13;2.88;;;14.60;99.90;;;;;;4822964;29;20050;-51
2022/06/12 04:36:57;;;;;;;10.13;2.58;;;14.70;99.90;;;;;;4822759;29;20062;-58
2022/06/12 04:39:27;;;;;;;13.63;2.95;;;14.80;99.90;;;;;;4822523;29;20507;-56
2022/06/12 04:41:54;;;;;;;10.13;3.00;;;14.90;99.90;;;;;;4822102;29;20046;-55
2022/06/12 04:44:20;;;;;;;9.00;2.80;;;14.90;99.90;;;;;;4806460;29;20138;-55
2022/06/12 04:46:48;;;;;;;11.43;2.90;;;15.00;99.90;;;;;;4822345;29;20064;-54
2022/06/12 04:49:18;;;;;;;9.07;2.72;;;15.10;99.90;;;;;;4806336;29;20471;-58
2022/06/12 04:51:44;;;;;;;12.07;3.03;;;15.30;99.90;;;;;;4822224;29;20054;-56
2022/06/12 04:54:10;;;;;;;12.48;2.92;;;15.50;99.90;;;;;;4791620;29;20081;-56
2022/06/12 04:56:36;;;;;;;10.40;2.80;;;15.50;99.90;;;;;;4822305;29;20160;-59
2022/06/12 04:59:05;;;;;;;12.32;2.90;;;15.60;99.90;;;;;;4822552;29;20054;-55
2022/06/12 05:01:32;;;;;;;10.07;2.83;;;15.50;99.90;;;;;;4822472;29;20133;-58
2022/06/12 05:04:00;;;;;;;11.52;3.20;;;15.50;99.90;;;;;;4805851;29;20110;-55
2022/06/12 05:06:26;;;;;;;13.95;3.45;;;15.60;99.90;;;;;;4822627;29;20090;-56
2022/06/12 05:08:52;;;;;;;13.35;3.00;;;16.00;99.90;;;;;;4822035;29;20057;-59
2022/06/12 05:11:19;;;;;;;10.82;3.05;;;16.80;99.90;;;;;;4822515;29;20054;-58
2022/06/12 05:13:45;;;;;;;12.27;3.00;;;17.20;99.90;;;;;;4822008;29;20054;-58
2022/06/12 05:16:31;;;;;;;9.30;3.22;;;17.30;99.90;;;;;;4822396;29;20120;-58
2022/06/12 05:18:58;;;;;;;11.07;3.53;;;17.60;99.90;;;;;;4822032;29;20203;-55
2022/06/12 05:21:25;;;;;;;13.77;3.45;;;18.50;99.90;;;;;;4821893;29;20062;-58
2022/06/12 05:23:52;;;;;;;9.75;2.72;;;19.50;99.90;;;;;;4821705;29;20485;-61
2022/06/12 05:26:18;;;;;;;11.80;3.25;;;20.40;99.90;;;;;;4822087;29;20047;-56
2022/06/12 05:28:44;;;;;;;11.25;3.00;;;21.20;99.90;;;;;;4790466;29;20066;-58
2022/06/12 05:31:10;;;;;;;11.43;2.83;;;21.90;99.90;;;;;;4805647;29;20046;-58
2022/06/12 05:33:36;;;;;;;10.77;3.00;;;22.60;99.90;;;;;;4790680;29;20485;-59
2022/06/12 05:36:03;;;;;;;13.77;3.15;;;23.20;99.90;;;;;;4805667;29;20050;-59
2022/06/12 05:38:29;;;;;;;12.23;3.30;;;23.60;99.50;;;;;;4805860;29;20489;-59
2022/06/12 05:40:54;;;;;;;11.73;3.28;;;24.00;98.80;;;;;;4821301;29;20054;-59
2022/06/12 05:43:21;;;;;;;11.00;3.47;;;24.30;99.20;;;;;;4821567;29;20137;-59
2022/06/12 05:45:47;;;;;;;10.95;3.22;;;24.60;98.50;;;;;;4821473;29;20072;-60
2022/06/12 05:48:17;;;;;;;10.27;2.75;;;24.60;97.90;;;;;;4805383;29;20114;-59
2022/06/12 05:50:58;;;;;;;11.48;3.65;;;24.50;98.20;;;;;;4804900;29;20051;-62
2022/06/12 05:53:26;;;;;;;14.77;3.53;;;24.60;98.80;;;;;;4822233;29;20118;-59
2022/06/12 05:55:54;;;;;;;15.20;3.70;;;24.80;98.00;;;;;;4808574;29;20059;-60
2022/06/12 05:58:22;;;;;;;11.32;3.28;;;24.90;97.40;;;;;;4824894;29;20046;-59
2022/06/12 06:00:50;;;;;;;12.45;3.20;;;25.10;98.10;;;;;;4824427;29;20047;-60
2022/06/12 06:03:16;;;;;;;13.15;3.38;;;25.40;97.60;;;;;;4824723;29;20426;-59
2022/06/12 06:05:43;;;;;;;11.65;3.53;;;25.80;96.70;;;;;;4808437;29;20067;-59
2022/06/12 06:08:10;;;;;;;16.90;4.00;;;26.10;96.20;;;;;;4824746;29;20081;-59
2022/06/12 06:10:36;;;;;;;17.58;3.95;;;26.40;95.80;;;;;;4824801;29;20100;-60
2022/06/12 06:13:02;;;;;;;10.10;3.10;;;26.40;95.80;;;;;;4808074;29;20086;-59
2022/06/12 06:15:28;;;;;;;14.05;3.78;;;26.60;95.40;;;;;;4808404;29;20058;-60
2022/06/12 06:17:54;;;;;;;12.50;3.65;;;26.10;95.60;;;;;;4808113;29;20069;-59
2022/06/12 06:20:23;;;;;;;17.23;4.45;;;25.60;96.00;;;;;;4824223;29;20419;-59
2022/06/12 06:22:51;;;;;;;13.95;3.90;;;25.20;96.40;;;;;;4808341;29;20118;-59
2022/06/12 06:25:17;;;;;;;12.52;3.63;;;25.60;96.70;;;;;;4824879;29;20093;-58
2022/06/12 06:27:43;;;;;;;13.32;3.65;;;26.10;96.30;;;;;;4824972;29;20115;-58
2022/06/12 06:30:10;;;;;;;13.07;3.88;;;26.50;95.90;;;;;;4824399;29;20050;-59
2022/06/12 06:32:36;;;;;;;12.05;3.35;;;26.90;95.30;;;;;;4824707;29;20061;-58
2022/06/12 06:35:04;;;;;;;12.30;4.03;;;27.10;94.80;;;;;;4778269;29;20111;-58
2022/06/12 06:37:31;;;;;;;11.93;3.67;;;27.20;94.70;;;;;;4808472;29;20085;-58
2022/06/12 06:39:56;;;;;;;13.77;3.97;;;26.90;94.60;;;;;;4807978;29;20111;-58
2022/06/12 06:42:23;;;;;;;9.90;3.30;;;27.10;94.80;;;;;;4824604;29;20454;-58
2022/06/12 06:47:35;;;;;;;13.48;3.78;;;27.80;94.20;;;;;;4824518;29;20446;-59
2022/06/12 06:50:03;;;;;;;15.50;4.32;;;28.20;93.50;;;;;;4823818;29;20565;-59
2022/06/12 06:52:29;;;;;;;12.00;3.50;;;28.60;93.40;;;;;;4808092;29;20054;-59
2022/06/12 06:54:55;;;;;;;13.43;4.05;;;29.00;93.00;;;;;;4807796;29;20057;-59
2022/06/12 06:57:20;;;;;;;15.85;4.55;;;29.20;92.30;;;;;;4824301;29;20054;-58
2022/06/12 06:59:46;;;;;;;14.30;4.18;;;29.20;92.20;;;;;;4823991;29;20086;-59
2022/06/12 07:02:12;;;;;;;11.38;3.70;;;29.40;92.20;;;;;;4823560;29;20219;-58
2022/06/12 07:04:38;;;;;;;14.20;4.20;;;29.80;91.60;;;;;;4823884;29;20054;-58
2022/06/12 07:07:05;;;;;;;15.55;4.00;;;29.50;91.30;;;;;;4823746;29;20054;-59
2022/06/12 07:09:31;;;;;;;12.95;4.20;;;28.80;91.90;;;;;;4823957;29;20061;-59
2022/06/12 07:11:57;;;;;;;15.90;4.20;;;28.70;92.10;;;;;;4823286;29;20412;-58
2022/06/12 07:14:24;;;;;;;14.30;3.83;;;28.80;92.30;;;;;;4823757;29;20050;-59
2022/06/12 07:16:49;;;;;;;14.23;4.18;;;28.80;92.00;;;;;;4823850;29;20067;-59
2022/06/12 07:19:15;;;;;;;15.77;4.68;;;29.00;91.70;;;;;;4823362;29;20508;-59
2022/06/12 07:21:41;;;;;;;12.43;3.75;;;29.40;91.60;;;;;;4823820;29;20050;-59
2022/06/12 07:24:07;;;;;;;13.55;3.72;;;29.40;91.50;;;;;;4792469;29;20086;-60
2022/06/12 07:26:37;;;;;;;14.80;3.92;;;29.80;90.80;;;;;;4807513;29;20552;-59
2022/06/12 07:29:03;;;;;;;15.48;4.43;;;29.90;90.90;;;;;;4807322;29;20086;-61
2022/06/12 07:31:30;;;;;;;15.57;4.20;;;30.30;90.40;;;;;;4823301;29;20066;-62
2022/06/12 07:33:56;;;;;;;12.70;4.18;;;30.40;91.10;;;;;;4807199;29;20219;-62
2022/06/12 07:36:22;;;;;;;14.68;4.18;;;30.70;90.30;;;;;;4823953;29;20141;-57
2022/06/12 07:38:49;;;;;;;11.48;3.95;;;30.90;89.60;;;;;;4823524;29;20061;-59
2022/06/12 07:41:16;;;;;;;12.70;3.65;;;30.80;89.20;;;;;;4823164;29;20476;-59
2022/06/12 07:43:43;;;;;;;14.10;3.22;;;31.00;88.70;;;;;;4823593;29;20077;-59
2022/06/12 07:46:11;;;;;;;12.65;3.22;;;31.20;86.20;;;;;;4823035;29;20050;-60
2022/06/12 07:48:38;;;;;;;10.60;3.22;;;31.40;83.50;;;;;;4823548;29;20094;-59
2022/06/12 07:51:07;;;;;;;12.63;3.63;;;31.10;85.00;;;;;;4806628;29;20046;-59
2022/06/12 07:53:34;;;;;;;11.88;3.13;;;31.10;83.60;;;;;;4823460;29;20046;-59
2022/06/12 07:56:01;;;;;;;9.07;3.20;;;30.80;82.80;;;;;;4822896;29;20501;-60
2022/06/12 07:58:27;;;;;;;9.68;3.08;;;30.80;82.80;;;;;;4806846;29;20090;-59
2022/06/12 08:00:58;;;;;;;11.25;3.28;;;31.10;83.20;;;;;;4823094;29;20069;-59
2022/06/12 08:03:26;;;;;;;12.55;3.20;;;31.10;82.40;;;;;;4806628;29;20099;-59
2022/06/12 08:05:52;;;;;;;11.57;3.10;;;31.20;82.50;;;;;;4822229;29;20070;-60
2022/06/12 08:08:18;;;;;;;11.10;3.38;;;31.60;81.80;;;;;;4822816;29;20396;-59
2022/06/12 08:10:44;;;;;;;8.75;2.88;;;32.00;82.20;;;;;;4823266;29;20042;-60
2022/06/12 08:13:11;;;;;;;9.68;2.67;;;32.10;80.20;;;;;;4806493;29;20054;-59
2022/06/12 08:15:40;;;;;;;11.40;3.10;;;32.40;77.30;;;;;;4822967;29;20092;-58
2022/06/12 08:18:06;;;;;;;9.45;2.72;;;32.20;76.50;;;;;;4822408;29;20050;-59
2022/06/12 08:20:35;;;;;;;10.73;2.75;;;32.10;76.60;;;;;;4802926;29;20104;-57
2022/06/12 08:23:05;;;;;;;7.35;2.63;;;31.60;76.70;;;;;;4803990;29;20066;-60
2022/06/12 08:25:35;;;;;;;8.02;2.63;;;31.50;77.30;;;;;;4803017;29;20095;-59
2022/06/12 08:28:01;;;;;;;9.20;2.58;;;31.40;78.30;;;;;;4802738;29;20142;-59
2022/06/12 08:30:29;;;;;;;8.90;2.72;;;31.20;77.20;;;;;;4803308;29;20137;-59
2022/06/12 08:32:56;;;;;;;8.82;2.92;;;31.00;77.40;;;;;;4804525;29;20108;-60
2022/06/12 08:35:27;;;;;;;9.98;3.40;;;30.70;78.10;;;;;;4803517;29;20560;-59
2022/06/12 08:37:53;;;;;;;12.05;3.15;;;30.60;78.80;;;;;;4803564;29;20137;-59
2022/06/12 08:40:42;;;;;;;11.43;2.92;;;30.50;79.00;;;;;;4802231;29;20050;-59
2022/06/12 08:43:31;;;;;;;11.27;2.95;;;29.80;79.40;;;;;;4802707;29;20054;-59
2022/06/12 08:46:06;;;;;;;11.02;2.97;;;29.40;81.40;;;;;;4793896;29;20391;-59
2022/06/12 08:48:45;;;;;;;9.57;2.92;;;29.20;81.50;;;;;;4804234;29;20046;-60
2022/06/12 08:51:31;;;;;;;9.85;3.10;;;29.20;82.10;;;;;;4803671;29;20047;-59
2022/06/12 08:54:23;;;;;;;10.43;3.15;;;28.80;81.00;;;;;;4803076;29;20059;-61
2022/06/12 08:56:54;;;;;;;11.95;3.35;;;28.30;80.80;;;;;;4803518;29;20126;-59
2022/06/12 09:00:04;;;;;;;9.75;3.15;;;28.30;82.20;;;;;;4803997;29;20086;-59
2022/06/12 09:02:35;;;;;;;8.23;2.95;;;28.80;81.30;;;;;;4802379;29;20085;-59
2022/06/12 09:05:03;;;;;;;11.93;3.40;;;29.60;81.10;;;;;;4804034;29;20476;-59
2022/06/12 09:07:56;;;;;;;12.18;3.50;;;29.90;81.40;;;;;;4803550;29;20047;-59
2022/06/12 09:10:37;;;;;;;12.43;3.80;;;29.50;81.10;;;;;;4800991;29;20059;-58
2022/06/12 09:13:29;;;;;;;9.00;3.22;;;28.90;80.60;;;;;;4802899;29;20306;-59
2022/06/12 09:16:33;;;;;;;11.48;3.00;;;28.00;82.10;;;;;;4803269;29;20054;-58
2022/06/12 09:19:11;;;;;;;8.65;3.05;;;28.20;83.00;;;;;;4782994;30;20050;-59
2022/06/12 09:22:04;;;;;;;9.27;3.00;;;27.80;82.20;;;;;;4783674;30;20063;-59
2022/06/12 09:24:43;;;;;;;11.75;3.17;;;27.50;83.60;;;;;;4798089;29;20078;-59
2022/06/12 09:27:23;;;;;;;11.02;3.30;;;26.90;83.70;;;;;;4804069;29;20078;-58
2022/06/12 09:30:09;;;;;;;8.25;2.67;;;26.60;83.90;;;;;;4806849;29;20097;-59
2022/06/12 09:32:44;;;;;;;9.27;2.75;;;26.30;84.50;;;;;;4806684;29;20063;-61
2022/06/12 09:35:30;;;;;;;8.95;2.80;;;26.00;85.70;;;;;;4807630;29;20058;-60
2022/06/12 09:38:21;;;;;;;8.65;3.20;;;26.20;86.70;;;;;;4806308;29;20062;-60
2022/06/12 09:41:20;;;;;;;11.02;3.30;;;26.90;85.80;;;;;;4807351;29;20054;-60
2022/06/12 09:44:11;;;;;;;10.52;3.13;;;27.40;86.30;;;;;;4790920;29;20119;-60
2022/06/12 09:46:51;;;;;;;10.10;3.03;;;27.90;84.10;;;;;;4805813;29;20051;-63
2022/06/12 09:49:46;;;;;;;8.98;3.17;;;28.60;83.00;;;;;;4805898;29;20051;-64
2022/06/12 09:52:36;;;;;;;4.47;1.92;;;28.50;81.20;;;;;;4798262;29;20069;-63
2022/06/12 09:55:22;;;;;;;8.70;2.35;;;28.00;81.70;;;;;;4807103;29;20050;-60
2022/06/12 09:58:35;;;;;;;9.48;3.17;;;27.40;79.70;;;;;;4806824;29;20054;-59
2022/06/12 10:01:18;;;;;;;7.57;2.30;;;27.10;81.00;;;;;;4807043;29;20063;-59
2022/06/12 10:03:59;;;;;;;;;;;26.90;81.50;;;;;;4806619;29;20459;-60
2022/06/12 10:06:36;;;;;;;7.15;2.33;;;26.80;79.60;;;;;;4805453;29;19980;-59
2022/06/12 10:09:39;;;;;;;6.38;2.20;;;27.10;80.40;;;;;;4806769;29;20129;-60
2022/06/12 10:12:10;;;;;;;6.72;1.92;;;27.30;79.40;;;;;;4806884;29;20047;-59
2022/06/12 10:14:59;;;;;;;8.00;1.90;;;27.40;77.20;;;;;;4805297;29;20173;-59
2022/06/12 10:17:33;;;;;;;5.82;1.70;;;27.00;75.30;;;;;;4806291;29;20050;-59
2022/06/12 10:20:11;;;;;;;5.75;1.75;;;26.60;75.60;;;;;;4812760;29;20529;-59
2022/06/12 10:22:49;;;;;;;7.85;1.85;;;26.50;76.30;;;;;;4823255;29;20093;-59
2022/06/12 10:25:21;;;;;;;5.85;1.90;;;26.40;77.10;;;;;;4808093;29;20054;-61
2022/06/12 10:28:01;;;;;;;5.63;2.22;;;26.50;77.10;;;;;;4823940;29;20454;-59
2022/06/12 10:30:35;;;;;;;4.55;1.85;;;26.50;78.40;;;;;;4807788;29;20054;-59
2022/06/12 10:33:25;;;;;;;4.05;1.75;;;26.30;76.50;;;;;;4792970;29;20065;-59
2022/06/12 10:35:58;;;;;;;3.95;1.63;;;26.10;77.10;;;;;;4824138;29;20103;-59
2022/06/12 10:38:25;;;;;;;;;;;26.20;77.50;;;;;;4824122;29;20073;-63
2022/06/12 10:40:57;;;;;;;4.68;1.92;;;26.40;74.60;;;;;;4823172;29;19976;-59
2022/06/12 10:43:23;;;;;;;4.82;1.80;;;26.50;75.60;;;;;;4808141;29;20454;-61
2022/06/12 10:46:05;;;;;;;6.00;2.05;;;26.60;77.10;;;;;;4823507;29;20104;-59
2022/06/12 10:48:34;;;;;;;11.85;6.53;;;26.10;75.10;;;;;;4823782;29;20054;-63
2022/06/12 10:51:19;;;;;;;6.45;2.03;;;25.70;76.50;;;;;;4808014;29;20050;-59
2022/06/12 10:53:45;;;;;;;5.35;1.98;;;25.50;78.00;;;;;;4807926;29;20331;-60
2022/06/12 10:56:11;;;;;;;6.28;2.00;;;25.70;81.10;;;;;;4824132;29;20082;-61
2022/06/12 10:59:00;;;;;;;6.85;2.40;;;25.80;79.80;;;;;;4823393;29;20500;-60
2022/06/12 11:01:38;;;;;;;6.88;2.15;;;25.70;79.20;;;;;;4807553;29;20100;-60
2022/06/12 11:04:23;;;;;;;5.78;1.98;;;25.70;80.00;;;;;;4824003;29;20050;-59
2022/06/12 11:07:15;;;;;;;66.57;11.88;;;25.60;79.50;;;;;;4823634;29;20061;-60
2022/06/12 11:09:48;;;;;;;7.63;2.53;;;25.50;80.60;;;;;;4823329;29;20207;-61
2022/06/12 11:12:43;;;;;;;6.35;2.15;;;25.60;79.10;;;;;;4823544;29;20047;-58
2022/06/12 11:15:46;;;;;;;9.32;2.40;;;25.60;79.60;;;;;;4757904;29;20055;-58
2022/06/12 11:18:32;;;;;;;6.15;2.10;;;25.70;81.20;;;;;;4821345;29;20086;-59
2022/06/12 11:21:32;;;;;;;7.05;2.40;;;25.70;78.90;;;;;;4823076;29;20211;-59
2022/06/12 11:24:39;;;;;;;5.15;2.05;;;25.40;78.00;;;;;;4823557;29;20062;-58
2022/06/12 11:27:32;;;;;;;6.93;2.13;;;25.40;78.50;;;;;;4749399;30;20092;-57
2022/06/12 11:30:22;;;;;;;6.20;2.20;;;25.30;79.10;;;;;;4823750;29;20054;-61
2022/06/12 11:32:57;;;;;;;6.10;2.00;;;25.40;79.60;;;;;;4823207;29;20050;-60
2022/06/12 11:35:34;;;;;;;6.75;2.20;;;25.30;79.00;;;;;;4807104;29;20115;-59
2022/06/12 11:38:38;;;;;;;5.60;1.75;;;25.10;78.40;;;;;;4823342;29;20568;-59
2022/06/12 11:41:13;;;;;;;6.20;2.20;;;25.00;78.50;;;;;;4823320;29;20043;-60
2022/06/12 11:43:58;;;;;;;6.15;2.42;;;24.70;78.90;;;;;;4822533;29;20058;-60
2022/06/12 11:46:50;;;;;;;6.97;2.35;;;24.60;79.70;;;;;;4823240;29;20503;-61
2022/06/12 11:49:39;;;;;;;10.05;2.55;;;24.60;80.60;;;;;;4807032;29;20624;-60
2022/06/12 11:52:20;;;;;;;7.93;2.53;;;24.50;80.90;;;;;;4791281;29;20475;-61
2022/06/12 11:54:46;;;;;;;5.50;2.10;;;24.40;80.60;;;;;;4806264;29;20058;-61
2022/06/12 11:57:38;;;;;;;7.25;2.20;;;24.50;80.70;;;;;;4791885;29;20056;-59
2022/06/12 12:00:06;;;;;;;5.22;1.92;;;24.50;81.30;;;;;;4806378;29;20439;-61
2022/06/12 12:03:07;;;;;;;8.60;2.30;;;24.50;80.40;;;;;;4791904;29;20050;-60
2022/06/12 12:06:01;;;;;;;6.78;2.10;;;24.20;79.60;;;;;;4805257;29;20046;-58
2022/06/12 12:09:02;;;;;;;8.73;2.13;;;24.10;79.60;;;;;;4821020;29;20196;-58
2022/06/12 12:11:35;;;;;;;5.85;1.95;;;24.30;80.00;;;;;;4823037;29;20304;-60
2022/06/12 12:14:05;;;;;;;9.95;2.38;;;24.40;80.30;;;;;;4822517;29;20050;-58
2022/06/12 12:16:38;;;;;;;5.32;2.00;;;24.60;80.70;;;;;;4822747;29;20126;-58
2022/06/12 12:19:23;;;;;;;5.00;2.00;;;24.70;78.50;;;;;;4823031;29;20055;-58
2022/06/12 12:21:55;;;;;;;5.95;1.80;;;24.80;78.70;;;;;;4822690;29;20058;-58
2022/06/12 12:24:42;;;;;;;4.82;1.77;;;24.80;79.20;;;;;;4822602;29;20632;-58
2022/06/12 12:27:17;;;;;;;5.55;1.75;;;24.80;80.00;;;;;;4822812;29;20062;-58
2022/06/12 12:29:44;;;;;;;5.55;1.83;;;24.70;79.00;;;;;;4822369;29;20057;-58
2022/06/12 12:32:11;;;;;;;9.88;2.30;;;24.60;78.50;;;;;;4822558;29;20050;-58
2022/06/12 12:34:40;;;;;;;5.85;2.20;;;24.50;79.20;;;;;;4822764;29;20397;-58
2022/06/12 12:42:42;;;;;;;6.88;2.22;;;24.10;80.10;;;;;;4822283;29;20056;-62
2022/06/12 12:45:23;;;;;;;5.68;2.00;;;24.00;79.90;;;;;;4791050;29;20050;-59
2022/06/12 12:48:07;;;;;;;6.00;1.83;;;24.10;80.50;;;;;;4790778;29;20062;-59
2022/06/12 12:50:42;;;;;;;6.90;2.13;;;24.20;80.80;;;;;;4806277;29;20061;-59
2022/06/12 12:53:18;;;;;;;5.18;1.70;;;24.20;80.70;;;;;;4822156;29;20138;-59
2022/06/12 12:55:44;;;;;;;12.15;2.30;;;24.20;78.50;;;;;;4821992;29;20061;-62
2022/06/12 12:58:20;;;;;;;6.28;2.00;;;24.00;78.60;;;;;;4821929;29;20046;-59
2022/06/12 13:00:47;;;;;;;6.53;2.03;;;23.90;78.60;;;;;;4805658;29;20046;-61
2022/06/12 13:03:40;;;;;;;6.28;2.10;;;23.80;79.30;;;;;;4825470;29;20061;-59
2022/06/12 13:06:34;;;;;;;7.50;1.95;;;23.60;81.00;;;;;;4828278;29;20082;-58
2022/06/12 13:09:27;;;;;;;7.53;2.08;;;23.60;81.30;;;;;;4827979;29;20054;-59
2022/06/12 13:12:31;;;;;;;8.20;2.10;;;23.60;83.00;;;;;;4827972;29;20137;-59
2022/06/12 13:15:16;;;;;;;5.75;2.03;;;23.70;81.40;;;;;;4790339;29;20114;-60
2022/06/12 13:17:45;;;;;;;5.47;2.10;;;23.70;82.00;;;;;;4827025;29;20061;-58
2022/06/12 13:20:39;;;;;;;8.43;2.40;;;24.00;82.20;;;;;;4811257;29;20122;-58
2022/06/12 13:23:49;;;;;;;7.43;2.42;;;23.80;81.90;;;;;;4828088;29;20046;-59
2022/06/12 13:26:19;;;;;;;7.32;2.30;;;24.00;83.20;;;;;;4753533;30;20106;-60
2022/06/12 13:28:57;;;;;;;7.47;2.65;;;24.00;81.80;;;;;;4805048;29;20072;-59
2022/06/12 13:31:23;;;;;;;6.50;2.25;;;24.00;80.90;;;;;;4828298;29;20438;-59
2022/06/12 13:33:57;;;;;;;5.32;2.00;;;24.00;81.00;;;;;;4811734;29;20058;-59
2022/06/12 13:36:31;;;;;;;8.48;2.10;;;23.90;81.20;;;;;;4828227;29;20050;-59
2022/06/12 13:39:25;;;;;;;5.78;2.13;;;23.90;81.40;;;;;;4811394;29;20046;-59
2022/06/12 13:42:01;;;;;;;3.88;1.75;;;23.80;81.90;;;;;;4827812;29;20158;-61
2022/06/12 13:44:36;;;;;;;10.80;2.30;;;23.80;79.90;;;;;;4827890;29;20149;-58